»·PEaware :: QXE2674 KLAX-KSBA

QXE2674 :: KLAX-KSBA

FLIGHT INFORMATION

Flight Status: Arrived
Operator:
Horizon Air
More flights by this operator :: More flights under this callsign
Pilot: Walter H. (552)
Aircraft: DEHAVILLAND DASH 8 400
(DH8D)
More flights by this aircraft type
Origin: KLAX Los Angeles Intl
United States
Destination: KSBA Santa Barbara Mun
United States
More flights between these airports :: More routes between these airports
Route: +VTU7 VTU VTU282 KWANG
File this flight plan on PilotEdge
Remarks:
Altitude:
(Current/Filed)
6,000ft
Speed:
(Current/Filed)
250kts
Departed: 10-Apr-17 09:06 AM
Arrived: 10-Apr-17 09:38 AM
Distance/Time
Traveled:
77nm/0:32
Distance/Time
To Go:
Arrived

Flight Plot

Page will automatically refresh every two minutes.

Flight plan parsing failed; only flown route is shown


Map Options




Map Legend


Flown Route
Filed Route
Departure Airport
Arrival Airport
Navaid (VOR, NDB)
Fix

Horizontal Profiles

Position Reports

Time Latitude Longitude Heading Altitude Ground
Speed
10-Apr-17 08:44 33.939516 -118.408770 332 133ft 0kts
10-Apr-17 08:45 33.939516 -118.408770 332 133ft 0kts
10-Apr-17 08:46 33.939516 -118.408770 332 133ft 0kts
10-Apr-17 08:47 33.939516 -118.408770 332 133ft 0kts
10-Apr-17 08:48 33.939516 -118.408770 332 133ft 0kts
10-Apr-17 08:49 33.939516 -118.408770 332 133ft 0kts
10-Apr-17 08:50 33.939516 -118.408770 332 133ft 0kts
10-Apr-17 08:51 33.939516 -118.408770 332 133ft 0kts
10-Apr-17 08:52 33.939516 -118.408770 332 133ft 0kts
10-Apr-17 08:53 33.939516 -118.408770 332 133ft 0kts
10-Apr-17 08:54 33.939516 -118.408770 332 133ft 0kts
10-Apr-17 08:55 33.939516 -118.408770 332 133ft 0kts
10-Apr-17 08:56 33.939509 -118.408766 332 133ft 0kts
10-Apr-17 08:57 33.939368 -118.408678 333 133ft 0kts
10-Apr-17 08:58 33.938932 -118.407945 101 133ft 10kts
10-Apr-17 08:59 33.939103 -118.405561 83 133ft 3kts
10-Apr-17 09:00 33.939566 -118.401014 84 133ft 13kts
10-Apr-17 09:01 33.940031 -118.395889 84 133ft 4kts
10-Apr-17 09:02 33.939606 -118.392499 84 133ft 23kts
10-Apr-17 09:03 33.939919 -118.388467 114 133ft 0kts
10-Apr-17 09:04 33.939919 -118.388467 114 133ft 0kts
10-Apr-17 09:05 33.939919 -118.388467 114 133ft 0kts
10-Apr-17 09:06 33.939901 -118.388424 116 133ft 2kts
10-Apr-17 09:07 33.937773 -118.400328 263 135ft 140kts
10-Apr-17 09:08 33.932222 -118.461996 263 2106ft 203kts
10-Apr-17 09:09 33.925687 -118.531045 263 4797ft 213kts
10-Apr-17 09:10 33.918082 -118.604242 263 5991ft 242kts
10-Apr-17 09:11 33.920032 -118.687038 298 5993ft 249kts
10-Apr-17 09:12 33.953193 -118.756225 301 5999ft 234kts
10-Apr-17 09:13 33.985345 -118.822758 300 6009ft 240kts
10-Apr-17 09:14 34.020028 -118.893627 300 6013ft 256kts
10-Apr-17 09:15 34.055906 -118.966427 300 6013ft 256kts
10-Apr-17 09:16 34.091814 -119.039402 300 6000ft 257kts
10-Apr-17 09:17 34.128287 -119.113385 300 5998ft 258kts
10-Apr-17 09:18 34.162523 -119.188274 299 5995ft 259kts
10-Apr-17 09:19 34.196116 -119.262796 298 5990ft 259kts
10-Apr-17 09:20 34.229353 -119.336598 298 5990ft 260kts
10-Apr-17 09:21 34.263384 -119.412299 298 5992ft 260kts
10-Apr-17 09:22 34.297419 -119.488114 298 5994ft 260kts
10-Apr-17 09:23 34.324180 -119.566849 274 5996ft 261kts
10-Apr-17 09:24 34.327660 -119.653572 273 5993ft 262kts
10-Apr-17 09:25 34.331177 -119.741067 273 5976ft 258kts
10-Apr-17 09:26 34.334104 -119.820138 273 5984ft 219kts
10-Apr-17 09:27 34.336360 -119.881426 273 5990ft 206kts
10-Apr-17 09:28 34.339070 -119.950539 273 5994ft 207kts
10-Apr-17 09:29 34.341214 -120.007615 273 6017ft 207kts
10-Apr-17 09:30 34.341723 -120.087377 273 5980ft 205kts
10-Apr-17 09:31 34.357647 -120.149950 340 4181ft 203kts
10-Apr-17 09:32 34.397571 -120.147156 36 3992ft 159kts
10-Apr-17 09:33 34.415244 -120.093653 73 3811ft 155kts
10-Apr-17 09:34 34.421940 -120.044099 80 3070ft 147kts
10-Apr-17 09:35 34.424593 -119.995932 85 2314ft 146kts
10-Apr-17 09:36 34.425768 -119.949612 85 1526ft 124kts
10-Apr-17 09:37 34.426588 -119.914218 86 1030ft 129kts
10-Apr-17 09:38 34.427221 -119.870028 88 297ft 131kts
10-Apr-17 09:39 34.428002 -119.839025 36 17ft 6kts

Navigation Log

Ident Type
Flight plan parsing failed, navigation log unavailable